sensor_id;sensor_type;location;lat;lon;timestamp;P1;durP1;ratioP1;P2;durP2;ratioP2
19814;SDS011;10067;53.092;8.800;2023-12-07T00:01:48;50.77;;;34.30;;
19814;SDS011;10067;53.092;8.800;2023-12-07T00:04:16;48.50;;;33.83;;
19814;SDS011;10067;53.092;8.800;2023-12-07T00:06:42;49.17;;;34.37;;
19814;SDS011;10067;53.092;8.800;2023-12-07T00:09:09;45.73;;;32.70;;
19814;SDS011;10067;53.092;8.800;2023-12-07T00:11:35;44.90;;;33.03;;
19814;SDS011;10067;53.092;8.800;2023-12-07T00:14:01;46.97;;;33.57;;
19814;SDS011;10067;53.092;8.800;2023-12-07T00:16:28;44.43;;;31.97;;
19814;SDS011;10067;53.092;8.800;2023-12-07T00:18:54;45.37;;;32.77;;
19814;SDS011;10067;53.092;8.800;2023-12-07T00:21:22;44.20;;;32.37;;
19814;SDS011;10067;53.092;8.800;2023-12-07T00:23:48;45.17;;;31.83;;
19814;SDS011;10067;53.092;8.800;2023-12-07T00:26:15;45.43;;;32.63;;
19814;SDS011;10067;53.092;8.800;2023-12-07T00:28:41;44.87;;;31.73;;
19814;SDS011;10067;53.092;8.800;2023-12-07T00:31:07;46.43;;;31.03;;
19814;SDS011;10067;53.092;8.800;2023-12-07T00:33:35;46.17;;;32.07;;
19814;SDS011;10067;53.092;8.800;2023-12-07T00:36:02;42.27;;;31.90;;
19814;SDS011;10067;53.092;8.800;2023-12-07T00:38:30;44.03;;;32.20;;
19814;SDS011;10067;53.092;8.800;2023-12-07T00:40:57;44.57;;;32.10;;
19814;SDS011;10067;53.092;8.800;2023-12-07T00:43:23;44.03;;;32.40;;
19814;SDS011;10067;53.092;8.800;2023-12-07T00:45:50;41.73;;;30.63;;
19814;SDS011;10067;53.092;8.800;2023-12-07T00:48:17;40.63;;;30.37;;
19814;SDS011;10067;53.092;8.800;2023-12-07T00:50:43;50.60;;;31.53;;
19814;SDS011;10067;53.092;8.800;2023-12-07T00:53:09;43.03;;;31.87;;
19814;SDS011;10067;53.092;8.800;2023-12-07T00:55:37;41.47;;;31.60;;
19814;SDS011;10067;53.092;8.800;2023-12-07T00:58:05;41.63;;;31.33;;
19814;SDS011;10067;53.092;8.800;2023-12-07T01:00:31;43.73;;;31.87;;
19814;SDS011;10067;53.092;8.800;2023-12-07T01:02:58;44.87;;;30.47;;
19814;SDS011;10067;53.092;8.800;2023-12-07T01:05:24;44.10;;;31.40;;
19814;SDS011;10067;53.092;8.800;2023-12-07T01:07:50;43.57;;;30.50;;
19814;SDS011;10067;53.092;8.800;2023-12-07T01:10:17;42.60;;;31.10;;
19814;SDS011;10067;53.092;8.800;2023-12-07T01:12:45;43.03;;;31.70;;
19814;SDS011;10067;53.092;8.800;2023-12-07T01:15:11;42.47;;;31.23;;
19814;SDS011;10067;53.092;8.800;2023-12-07T01:17:38;42.27;;;31.10;;
19814;SDS011;10067;53.092;8.800;2023-12-07T01:20:05;39.73;;;30.77;;
19814;SDS011;10067;53.092;8.800;2023-12-07T01:22:32;45.40;;;31.63;;
19814;SDS011;10067;53.092;8.800;2023-12-07T01:24:58;42.43;;;31.83;;
19814;SDS011;10067;53.092;8.800;2023-12-07T01:27:25;43.20;;;31.80;;
19814;SDS011;10067;53.092;8.800;2023-12-07T01:29:52;43.20;;;32.87;;
19814;SDS011;10067;53.092;8.800;2023-12-07T01:32:19;45.47;;;32.57;;
19814;SDS011;10067;53.092;8.800;2023-12-07T01:34:45;44.93;;;31.87;;
19814;SDS011;10067;53.092;8.800;2023-12-07T01:37:12;46.70;;;32.33;;
19814;SDS011;10067;53.092;8.800;2023-12-07T01:39:38;47.63;;;33.93;;
19814;SDS011;10067;53.092;8.800;2023-12-07T01:42:04;44.37;;;33.23;;
19814;SDS011;10067;53.092;8.800;2023-12-07T01:44:31;48.40;;;32.93;;
19814;SDS011;10067;53.092;8.800;2023-12-07T01:46:59;42.80;;;31.67;;
19814;SDS011;10067;53.092;8.800;2023-12-07T01:49:25;51.63;;;32.83;;
19814;SDS011;10067;53.092;8.800;2023-12-07T01:51:51;47.33;;;31.93;;
19814;SDS011;10067;53.092;8.800;2023-12-07T01:54:18;47.50;;;32.63;;
19814;SDS011;10067;53.092;8.800;2023-12-07T01:56:44;45.70;;;33.27;;
19814;SDS011;10067;53.092;8.800;2023-12-07T01:59:11;47.40;;;33.57;;
19814;SDS011;10067;53.092;8.800;2023-12-07T02:01:37;43.63;;;31.33;;
19814;SDS011;10067;53.092;8.800;2023-12-07T02:04:05;45.37;;;32.57;;
19814;SDS011;10067;53.092;8.800;2023-12-07T02:06:32;45.23;;;32.10;;
19814;SDS011;10067;53.092;8.800;2023-12-07T02:08:58;44.60;;;32.30;;
19814;SDS011;10067;53.092;8.800;2023-12-07T02:11:25;43.70;;;31.93;;
19814;SDS011;10067;53.092;8.800;2023-12-07T02:13:51;45.93;;;32.73;;
19814;SDS011;10067;53.092;8.800;2023-12-07T02:16:21;47.47;;;32.87;;
19814;SDS011;10067;53.092;8.800;2023-12-07T02:18:50;45.50;;;32.13;;
19814;SDS011;10067;53.092;8.800;2023-12-07T02:21:21;43.90;;;32.50;;
19814;SDS011;10067;53.092;8.800;2023-12-07T02:23:49;43.53;;;30.43;;
19814;SDS011;10067;53.092;8.800;2023-12-07T02:26:17;44.43;;;31.07;;
19814;SDS011;10067;53.092;8.800;2023-12-07T02:28:46;43.30;;;31.73;;
19814;SDS011;10067;53.092;8.800;2023-12-07T02:31:12;43.63;;;31.83;;
19814;SDS011;10067;53.092;8.800;2023-12-07T02:33:38;45.23;;;31.13;;
19814;SDS011;10067;53.092;8.800;2023-12-07T02:36:05;46.70;;;31.20;;
19814;SDS011;10067;53.092;8.800;2023-12-07T02:38:31;46.63;;;32.47;;
19814;SDS011;10067;53.092;8.800;2023-12-07T02:40:58;43.23;;;31.93;;
19814;SDS011;10067;53.092;8.800;2023-12-07T02:43:25;45.93;;;32.33;;
19814;SDS011;10067;53.092;8.800;2023-12-07T02:45:53;44.23;;;31.03;;
19814;SDS011;10067;53.092;8.800;2023-12-07T02:48:20;45.17;;;31.83;;
19814;SDS011;10067;53.092;8.800;2023-12-07T02:50:46;46.67;;;32.33;;
19814;SDS011;10067;53.092;8.800;2023-12-07T02:53:13;45.07;;;31.50;;
19814;SDS011;10067;53.092;8.800;2023-12-07T02:55:39;45.40;;;32.57;;
19814;SDS011;10067;53.092;8.800;2023-12-07T02:58:05;45.37;;;32.40;;
19814;SDS011;10067;53.092;8.800;2023-12-07T03:00:32;41.53;;;30.90;;
19814;SDS011;10067;53.092;8.800;2023-12-07T03:02:59;41.97;;;31.80;;
19814;SDS011;10067;53.092;8.800;2023-12-07T03:05:26;45.70;;;30.73;;
19814;SDS011;10067;53.092;8.800;2023-12-07T03:07:52;43.83;;;32.00;;
19814;SDS011;10067;53.092;8.800;2023-12-07T03:10:18;40.90;;;30.17;;
19814;SDS011;10067;53.092;8.800;2023-12-07T03:12:45;43.37;;;31.37;;
19814;SDS011;10067;53.092;8.800;2023-12-07T03:15:11;43.20;;;31.20;;
19814;SDS011;10067;53.092;8.800;2023-12-07T03:17:38;43.00;;;31.07;;
19814;SDS011;10067;53.092;8.800;2023-12-07T03:20:07;45.90;;;30.47;;
19814;SDS011;10067;53.092;8.800;2023-12-07T03:22:35;42.97;;;29.53;;
19814;SDS011;10067;53.092;8.800;2023-12-07T03:25:00;42.30;;;30.53;;
19814;SDS011;10067;53.092;8.800;2023-12-07T03:27:27;39.63;;;30.50;;
19814;SDS011;10067;53.092;8.800;2023-12-07T03:29:54;43.03;;;29.47;;
19814;SDS011;10067;53.092;8.800;2023-12-07T03:32:20;42.07;;;30.87;;
19814;SDS011;10067;53.092;8.800;2023-12-07T03:34:46;43.00;;;29.93;;
19814;SDS011;10067;53.092;8.800;2023-12-07T03:37:14;39.43;;;29.33;;
19814;SDS011;10067;53.092;8.800;2023-12-07T03:39:41;41.40;;;29.60;;
19814;SDS011;10067;53.092;8.800;2023-12-07T03:42:07;40.40;;;29.37;;
19814;SDS011;10067;53.092;8.800;2023-12-07T03:44:33;39.87;;;29.20;;
19814;SDS011;10067;53.092;8.800;2023-12-07T03:47:00;38.83;;;28.67;;
19814;SDS011;10067;53.092;8.800;2023-12-07T03:49:26;44.07;;;28.90;;
19814;SDS011;10067;53.092;8.800;2023-12-07T03:51:53;44.43;;;29.20;;
19814;SDS011;10067;53.092;8.800;2023-12-07T03:54:21;37.40;;;28.63;;
19814;SDS011;10067;53.092;8.800;2023-12-07T03:56:47;40.23;;;28.90;;
19814;SDS011;10067;53.092;8.800;2023-12-07T03:59:14;40.10;;;28.30;;
19814;SDS011;10067;53.092;8.800;2023-12-07T04:01:40;37.93;;;27.77;;
19814;SDS011;10067;53.092;8.800;2023-12-07T04:04:07;36.43;;;27.67;;
19814;SDS011;10067;53.092;8.800;2023-12-07T04:06:33;36.63;;;26.80;;
19814;SDS011;10067;53.092;8.800;2023-12-07T04:08:59;35.50;;;27.07;;
19814;SDS011;10067;53.092;8.800;2023-12-07T04:11:27;36.23;;;27.40;;
19814;SDS011;10067;53.092;8.800;2023-12-07T04:13:54;36.10;;;27.07;;
19814;SDS011;10067;53.092;8.800;2023-12-07T04:16:20;36.33;;;27.83;;
19814;SDS011;10067;53.092;8.800;2023-12-07T04:18:46;37.23;;;27.70;;
19814;SDS011;10067;53.092;8.800;2023-12-07T04:21:14;42.30;;;27.47;;
19814;SDS011;10067;53.092;8.800;2023-12-07T04:23:41;37.63;;;27.87;;
19814;SDS011;10067;53.092;8.800;2023-12-07T04:26:07;35.13;;;27.13;;
19814;SDS011;10067;53.092;8.800;2023-12-07T04:28:35;40.77;;;28.83;;
19814;SDS011;10067;53.092;8.800;2023-12-07T04:31:02;39.13;;;27.67;;
19814;SDS011;10067;53.092;8.800;2023-12-07T04:33:29;39.30;;;28.97;;
19814;SDS011;10067;53.092;8.800;2023-12-07T04:35:55;38.50;;;28.60;;
19814;SDS011;10067;53.092;8.800;2023-12-07T04:38:22;39.80;;;28.57;;
19814;SDS011;10067;53.092;8.800;2023-12-07T04:40:48;39.93;;;28.87;;
19814;SDS011;10067;53.092;8.800;2023-12-07T04:43:14;42.27;;;28.13;;
19814;SDS011;10067;53.092;8.800;2023-12-07T04:45:42;37.90;;;27.40;;
19814;SDS011;10067;53.092;8.800;2023-12-07T04:48:09;39.57;;;29.27;;
19814;SDS011;10067;53.092;8.800;2023-12-07T04:50:35;40.03;;;28.50;;
19814;SDS011;10067;53.092;8.800;2023-12-07T04:53:02;40.87;;;29.03;;
19814;SDS011;10067;53.092;8.800;2023-12-07T04:55:28;40.47;;;28.57;;
19814;SDS011;10067;53.092;8.800;2023-12-07T04:57:54;38.90;;;28.93;;
19814;SDS011;10067;53.092;8.800;2023-12-07T05:00:21;37.40;;;27.83;;
19814;SDS011;10067;53.092;8.800;2023-12-07T05:02:49;42.27;;;28.93;;
19814;SDS011;10067;53.092;8.800;2023-12-07T05:05:15;39.17;;;28.00;;
19814;SDS011;10067;53.092;8.800;2023-12-07T05:07:41;39.27;;;27.23;;
19814;SDS011;10067;53.092;8.800;2023-12-07T05:10:08;40.83;;;28.70;;
19814;SDS011;10067;53.092;8.800;2023-12-07T05:12:35;43.00;;;28.10;;
19814;SDS011;10067;53.092;8.800;2023-12-07T05:15:01;38.87;;;27.83;;
19814;SDS011;10067;53.092;8.800;2023-12-07T05:17:29;37.20;;;26.93;;
19814;SDS011;10067;53.092;8.800;2023-12-07T05:19:57;39.20;;;27.37;;
19814;SDS011;10067;53.092;8.800;2023-12-07T05:22:23;37.57;;;27.40;;
19814;SDS011;10067;53.092;8.800;2023-12-07T05:24:49;38.60;;;27.77;;
19814;SDS011;10067;53.092;8.800;2023-12-07T05:27:16;39.30;;;27.73;;
19814;SDS011;10067;53.092;8.800;2023-12-07T05:29:42;40.13;;;28.40;;
19814;SDS011;10067;53.092;8.800;2023-12-07T05:32:09;37.47;;;27.03;;
19814;SDS011;10067;53.092;8.800;2023-12-07T05:34:35;41.60;;;29.37;;
19814;SDS011;10067;53.092;8.800;2023-12-07T05:37:03;48.50;;;31.93;;
19814;SDS011;10067;53.092;8.800;2023-12-07T05:39:30;42.73;;;28.47;;
19814;SDS011;10067;53.092;8.800;2023-12-07T05:41:56;39.67;;;29.13;;
19814;SDS011;10067;53.092;8.800;2023-12-07T05:44:22;40.60;;;28.30;;
19814;SDS011;10067;53.092;8.800;2023-12-07T05:46:49;42.20;;;31.10;;
19814;SDS011;10067;53.092;8.800;2023-12-07T05:49:15;49.40;;;32.57;;
19814;SDS011;10067;53.092;8.800;2023-12-07T05:51:42;42.23;;;28.63;;
19814;SDS011;10067;53.092;8.800;2023-12-07T05:54:10;47.50;;;28.30;;
19814;SDS011;10067;53.092;8.800;2023-12-07T05:56:36;38.57;;;27.73;;
19814;SDS011;10067;53.092;8.800;2023-12-07T05:59:02;44.70;;;28.80;;
19814;SDS011;10067;53.092;8.800;2023-12-07T06:01:29;45.40;;;30.23;;
19814;SDS011;10067;53.092;8.800;2023-12-07T06:03:55;40.20;;;29.37;;
19814;SDS011;10067;53.092;8.800;2023-12-07T06:06:21;38.93;;;27.83;;
19814;SDS011;10067;53.092;8.800;2023-12-07T06:08:48;41.70;;;29.63;;
19814;SDS011;10067;53.092;8.800;2023-12-07T06:11:15;44.67;;;29.60;;
19814;SDS011;10067;53.092;8.800;2023-12-07T06:13:42;36.00;;;26.57;;
19814;SDS011;10067;53.092;8.800;2023-12-07T06:16:11;37.23;;;26.73;;
19814;SDS011;10067;53.092;8.800;2023-12-07T06:18:37;36.67;;;26.70;;
19814;SDS011;10067;53.092;8.800;2023-12-07T06:21:03;41.03;;;28.47;;
19814;SDS011;10067;53.092;8.800;2023-12-07T06:23:31;43.07;;;31.07;;
19814;SDS011;10067;53.092;8.800;2023-12-07T06:25:58;36.93;;;27.43;;
19814;SDS011;10067;53.092;8.800;2023-12-07T06:28:26;42.00;;;28.17;;
19814;SDS011;10067;53.092;8.800;2023-12-07T06:30:53;40.30;;;27.53;;
19814;SDS011;10067;53.092;8.800;2023-12-07T06:33:19;39.70;;;27.37;;
19814;SDS011;10067;53.092;8.800;2023-12-07T06:35:46;39.83;;;28.63;;
19814;SDS011;10067;53.092;8.800;2023-12-07T06:38:13;37.10;;;26.73;;
19814;SDS011;10067;53.092;8.800;2023-12-07T06:40:39;38.57;;;26.87;;
19814;SDS011;10067;53.092;8.800;2023-12-07T06:43:05;40.70;;;27.00;;
19814;SDS011;10067;53.092;8.800;2023-12-07T06:45:33;42.20;;;28.93;;
19814;SDS011;10067;53.092;8.800;2023-12-07T06:48:00;43.23;;;31.13;;
19814;SDS011;10067;53.092;8.800;2023-12-07T06:50:26;43.27;;;29.63;;
19814;SDS011;10067;53.092;8.800;2023-12-07T06:52:53;44.70;;;30.90;;
19814;SDS011;10067;53.092;8.800;2023-12-07T06:55:20;46.53;;;31.40;;
19814;SDS011;10067;53.092;8.800;2023-12-07T06:57:47;39.03;;;28.17;;
19814;SDS011;10067;53.092;8.800;2023-12-07T07:00:14;41.53;;;29.33;;
19814;SDS011;10067;53.092;8.800;2023-12-07T07:02:42;44.40;;;31.13;;
19814;SDS011;10067;53.092;8.800;2023-12-07T07:05:08;39.03;;;28.77;;
19814;SDS011;10067;53.092;8.800;2023-12-07T07:07:36;43.73;;;29.80;;
19814;SDS011;10067;53.092;8.800;2023-12-07T07:10:03;44.63;;;28.20;;
19814;SDS011;10067;53.092;8.800;2023-12-07T07:12:30;38.80;;;27.30;;
19814;SDS011;10067;53.092;8.800;2023-12-07T07:14:56;43.97;;;29.77;;
19814;SDS011;10067;53.092;8.800;2023-12-07T07:17:23;42.73;;;27.43;;
19814;SDS011;10067;53.092;8.800;2023-12-07T07:19:50;39.13;;;26.53;;
19814;SDS011;10067;53.092;8.800;2023-12-07T07:22:16;38.13;;;26.87;;
19814;SDS011;10067;53.092;8.800;2023-12-07T07:24:42;37.13;;;25.70;;
19814;SDS011;10067;53.092;8.800;2023-12-07T07:27:08;40.03;;;26.63;;
19814;SDS011;10067;53.092;8.800;2023-12-07T07:29:35;42.13;;;27.63;;
19814;SDS011;10067;53.092;8.800;2023-12-07T07:32:01;39.83;;;26.83;;
19814;SDS011;10067;53.092;8.800;2023-12-07T07:34:27;37.20;;;26.67;;
19814;SDS011;10067;53.092;8.800;2023-12-07T07:36:55;38.97;;;27.17;;
19814;SDS011;10067;53.092;8.800;2023-12-07T07:39:21;39.87;;;27.53;;
19814;SDS011;10067;53.092;8.800;2023-12-07T07:41:48;37.63;;;26.47;;
19814;SDS011;10067;53.092;8.800;2023-12-07T07:44:14;40.40;;;26.43;;
19814;SDS011;10067;53.092;8.800;2023-12-07T07:46:42;37.67;;;27.00;;
19814;SDS011;10067;53.092;8.800;2023-12-07T07:49:08;39.53;;;27.40;;
19814;SDS011;10067;53.092;8.800;2023-12-07T07:51:34;39.77;;;26.60;;
19814;SDS011;10067;53.092;8.800;2023-12-07T07:54:02;44.47;;;27.47;;
19814;SDS011;10067;53.092;8.800;2023-12-07T07:56:28;43.97;;;28.53;;
19814;SDS011;10067;53.092;8.800;2023-12-07T07:58:55;44.60;;;29.43;;
19814;SDS011;10067;53.092;8.800;2023-12-07T08:01:23;43.87;;;29.97;;
19814;SDS011;10067;53.092;8.800;2023-12-07T08:03:49;40.90;;;27.53;;
19814;SDS011;10067;53.092;8.800;2023-12-07T08:06:15;42.53;;;27.77;;
19814;SDS011;10067;53.092;8.800;2023-12-07T08:08:42;39.87;;;26.03;;
19814;SDS011;10067;53.092;8.800;2023-12-07T08:11:09;40.73;;;27.60;;
19814;SDS011;10067;53.092;8.800;2023-12-07T08:13:36;37.43;;;26.30;;
19814;SDS011;10067;53.092;8.800;2023-12-07T08:16:02;40.40;;;27.20;;
19814;SDS011;10067;53.092;8.800;2023-12-07T08:18:29;38.43;;;27.23;;
19814;SDS011;10067;53.092;8.800;2023-12-07T08:20:55;37.73;;;26.53;;
19814;SDS011;10067;53.092;8.800;2023-12-07T08:23:22;43.17;;;27.87;;
19814;SDS011;10067;53.092;8.800;2023-12-07T08:25:48;41.60;;;26.80;;
19814;SDS011;10067;53.092;8.800;2023-12-07T08:28:16;38.77;;;26.73;;
19814;SDS011;10067;53.092;8.800;2023-12-07T08:30:43;35.77;;;25.83;;
19814;SDS011;10067;53.092;8.800;2023-12-07T08:33:09;40.50;;;27.57;;
19814;SDS011;10067;53.092;8.800;2023-12-07T08:35:35;40.07;;;26.87;;
19814;SDS011;10067;53.092;8.800;2023-12-07T08:38:02;38.93;;;28.13;;
19814;SDS011;10067;53.092;8.800;2023-12-07T08:40:29;37.23;;;26.40;;
19814;SDS011;10067;53.092;8.800;2023-12-07T08:42:55;44.30;;;29.13;;
19814;SDS011;10067;53.092;8.800;2023-12-07T08:45:23;37.97;;;27.03;;
19814;SDS011;10067;53.092;8.800;2023-12-07T08:47:50;41.87;;;27.70;;
19814;SDS011;10067;53.092;8.800;2023-12-07T08:50:17;40.80;;;28.17;;
19814;SDS011;10067;53.092;8.800;2023-12-07T08:52:43;41.63;;;26.23;;
19814;SDS011;10067;53.092;8.800;2023-12-07T08:55:10;43.33;;;26.83;;
19814;SDS011;10067;53.092;8.800;2023-12-07T08:57:36;37.90;;;27.20;;
19814;SDS011;10067;53.092;8.800;2023-12-07T09:00:03;39.60;;;27.57;;
19814;SDS011;10067;53.092;8.800;2023-12-07T09:02:30;37.33;;;26.77;;
19814;SDS011;10067;53.092;8.800;2023-12-07T09:04:57;43.37;;;28.13;;
19814;SDS011;10067;53.092;8.800;2023-12-07T09:07:23;42.47;;;27.90;;
19814;SDS011;10067;53.092;8.800;2023-12-07T09:09:49;40.13;;;27.37;;
19814;SDS011;10067;53.092;8.800;2023-12-07T09:12:16;41.73;;;26.70;;
19814;SDS011;10067;53.092;8.800;2023-12-07T09:14:42;38.57;;;27.23;;
19814;SDS011;10067;53.092;8.800;2023-12-07T09:17:08;45.17;;;30.63;;
19814;SDS011;10067;53.092;8.800;2023-12-07T09:19:36;41.80;;;29.10;;
19814;SDS011;10067;53.092;8.800;2023-12-07T09:22:03;45.80;;;29.63;;
19814;SDS011;10067;53.092;8.800;2023-12-07T09:24:29;40.83;;;28.00;;
19814;SDS011;10067;53.092;8.800;2023-12-07T09:26:55;40.97;;;26.70;;
19814;SDS011;10067;53.092;8.800;2023-12-07T09:29:22;36.27;;;24.37;;
19814;SDS011;10067;53.092;8.800;2023-12-07T09:31:48;37.43;;;24.43;;
19814;SDS011;10067;53.092;8.800;2023-12-07T09:34:14;35.87;;;24.93;;
19814;SDS011;10067;53.092;8.800;2023-12-07T09:36:44;45.77;;;27.70;;
19814;SDS011;10067;53.092;8.800;2023-12-07T09:39:10;39.23;;;26.90;;
19814;SDS011;10067;53.092;8.800;2023-12-07T09:41:36;39.37;;;26.80;;
19814;SDS011;10067;53.092;8.800;2023-12-07T09:44:05;37.13;;;25.47;;
19814;SDS011;10067;53.092;8.800;2023-12-07T09:46:31;37.37;;;25.77;;
19814;SDS011;10067;53.092;8.800;2023-12-07T09:48:58;34.00;;;24.83;;
19814;SDS011;10067;53.092;8.800;2023-12-07T09:51:24;35.27;;;25.37;;
19814;SDS011;10067;53.092;8.800;2023-12-07T09:53:52;36.27;;;25.37;;
19814;SDS011;10067;53.092;8.800;2023-12-07T09:56:19;36.07;;;25.83;;
19814;SDS011;10067;53.092;8.800;2023-12-07T09:58:45;36.03;;;25.03;;
19814;SDS011;10067;53.092;8.800;2023-12-07T10:01:12;33.90;;;24.50;;
19814;SDS011;10067;53.092;8.800;2023-12-07T10:03:40;38.53;;;25.20;;
19814;SDS011;10067;53.092;8.800;2023-12-07T10:06:06;37.30;;;25.77;;
19814;SDS011;10067;53.092;8.800;2023-12-07T10:08:33;34.37;;;24.13;;
19814;SDS011;10067;53.092;8.800;2023-12-07T10:11:06;39.30;;;24.80;;
19814;SDS011;10067;53.092;8.800;2023-12-07T10:13:33;33.57;;;23.73;;
19814;SDS011;10067;53.092;8.800;2023-12-07T10:16:06;35.90;;;24.77;;
19814;SDS011;10067;53.092;8.800;2023-12-07T10:18:33;36.07;;;25.77;;
19814;SDS011;10067;53.092;8.800;2023-12-07T10:21:00;37.90;;;26.40;;
19814;SDS011;10067;53.092;8.800;2023-12-07T10:23:27;40.33;;;24.03;;
19814;SDS011;10067;53.092;8.800;2023-12-07T10:25:53;37.20;;;24.80;;
19814;SDS011;10067;53.092;8.800;2023-12-07T10:28:22;37.93;;;26.40;;
19814;SDS011;10067;53.092;8.800;2023-12-07T10:30:48;36.87;;;25.33;;
19814;SDS011;10067;53.092;8.800;2023-12-07T10:33:14;34.73;;;24.27;;
19814;SDS011;10067;53.092;8.800;2023-12-07T10:35:41;39.33;;;26.17;;
19814;SDS011;10067;53.092;8.800;2023-12-07T10:38:07;33.40;;;24.13;;
19814;SDS011;10067;53.092;8.800;2023-12-07T10:40:34;35.13;;;23.10;;
19814;SDS011;10067;53.092;8.800;2023-12-07T10:43:01;33.37;;;24.27;;
19814;SDS011;10067;53.092;8.800;2023-12-07T10:45:31;36.30;;;24.13;;
19814;SDS011;10067;53.092;8.800;2023-12-07T10:47:58;34.33;;;23.30;;
19814;SDS011;10067;53.092;8.800;2023-12-07T10:50:25;32.90;;;23.83;;
19814;SDS011;10067;53.092;8.800;2023-12-07T10:52:54;33.87;;;23.00;;
19814;SDS011;10067;53.092;8.800;2023-12-07T10:55:21;31.50;;;22.20;;
19814;SDS011;10067;53.092;8.800;2023-12-07T10:57:49;40.10;;;23.23;;
19814;SDS011;10067;53.092;8.800;2023-12-07T11:00:18;30.53;;;22.70;;
19814;SDS011;10067;53.092;8.800;2023-12-07T11:02:46;43.57;;;28.67;;
19814;SDS011;10067;53.092;8.800;2023-12-07T11:05:13;37.50;;;24.47;;
19814;SDS011;10067;53.092;8.800;2023-12-07T11:07:46;30.97;;;21.37;;
19814;SDS011;10067;53.092;8.800;2023-12-07T11:10:18;30.87;;;22.00;;
19814;SDS011;10067;53.092;8.800;2023-12-07T11:12:47;33.13;;;22.30;;
19814;SDS011;10067;53.092;8.800;2023-12-07T11:15:16;31.70;;;24.10;;
19814;SDS011;10067;53.092;8.800;2023-12-07T11:17:48;36.67;;;23.87;;
19814;SDS011;10067;53.092;8.800;2023-12-07T11:20:18;33.30;;;22.90;;
19814;SDS011;10067;53.092;8.800;2023-12-07T11:22:44;34.83;;;23.13;;
19814;SDS011;10067;53.092;8.800;2023-12-07T11:25:11;29.57;;;22.27;;
19814;SDS011;10067;53.092;8.800;2023-12-07T11:27:37;34.43;;;23.97;;
19814;SDS011;10067;53.092;8.800;2023-12-07T11:30:04;35.97;;;24.80;;
19814;SDS011;10067;53.092;8.800;2023-12-07T11:32:30;35.47;;;24.57;;
19814;SDS011;10067;53.092;8.800;2023-12-07T11:35:01;35.97;;;23.87;;
19814;SDS011;10067;53.092;8.800;2023-12-07T11:37:31;36.10;;;23.70;;
19814;SDS011;10067;53.092;8.800;2023-12-07T11:40:16;30.57;;;22.87;;
19814;SDS011;10067;53.092;8.800;2023-12-07T11:42:43;35.27;;;24.00;;
19814;SDS011;10067;53.092;8.800;2023-12-07T11:45:09;36.93;;;24.57;;
19814;SDS011;10067;53.092;8.800;2023-12-07T11:47:36;36.43;;;23.43;;
19814;SDS011;10067;53.092;8.800;2023-12-07T11:50:02;33.00;;;24.03;;
19814;SDS011;10067;53.092;8.800;2023-12-07T11:52:29;37.33;;;24.93;;
19814;SDS011;10067;53.092;8.800;2023-12-07T11:54:55;32.57;;;23.57;;
19814;SDS011;10067;53.092;8.800;2023-12-07T11:57:23;34.90;;;24.10;;
19814;SDS011;10067;53.092;8.800;2023-12-07T11:59:49;35.23;;;23.83;;
19814;SDS011;10067;53.092;8.800;2023-12-07T12:02:16;33.00;;;23.80;;
19814;SDS011;10067;53.092;8.800;2023-12-07T12:04:42;34.80;;;23.53;;
19814;SDS011;10067;53.092;8.800;2023-12-07T12:07:09;31.83;;;23.23;;
19814;SDS011;10067;53.092;8.800;2023-12-07T12:09:35;38.27;;;26.57;;
19814;SDS011;10067;53.092;8.800;2023-12-07T12:12:02;33.87;;;24.40;;
19814;SDS011;10067;53.092;8.800;2023-12-07T12:14:30;32.23;;;23.90;;
19814;SDS011;10067;53.092;8.800;2023-12-07T12:16:56;41.50;;;24.80;;
19814;SDS011;10067;53.092;8.800;2023-12-07T12:19:23;37.03;;;25.60;;
19814;SDS011;10067;53.092;8.800;2023-12-07T12:21:49;36.33;;;26.13;;
19814;SDS011;10067;53.092;8.800;2023-12-07T12:24:16;36.50;;;25.00;;
19814;SDS011;10067;53.092;8.800;2023-12-07T12:26:43;35.77;;;24.27;;
19814;SDS011;10067;53.092;8.800;2023-12-07T12:29:10;38.23;;;25.00;;
19814;SDS011;10067;53.092;8.800;2023-12-07T12:31:38;42.57;;;24.50;;
19814;SDS011;10067;53.092;8.800;2023-12-07T12:34:05;38.67;;;25.43;;
19814;SDS011;10067;53.092;8.800;2023-12-07T12:36:32;35.03;;;24.50;;
19814;SDS011;10067;53.092;8.800;2023-12-07T12:38:58;35.40;;;25.20;;
19814;SDS011;10067;53.092;8.800;2023-12-07T12:41:27;39.43;;;26.40;;
19814;SDS011;10067;53.092;8.800;2023-12-07T12:43:56;38.10;;;26.50;;
19814;SDS011;10067;53.092;8.800;2023-12-07T12:46:22;36.47;;;25.40;;
19814;SDS011;10067;53.092;8.800;2023-12-07T12:48:58;35.73;;;25.10;;
19814;SDS011;10067;53.092;8.800;2023-12-07T12:51:24;43.37;;;27.73;;
19814;SDS011;10067;53.092;8.800;2023-12-07T12:53:51;41.00;;;27.57;;
19814;SDS011;10067;53.092;8.800;2023-12-07T12:56:18;43.00;;;28.90;;
19814;SDS011;10067;53.092;8.800;2023-12-07T12:58:45;40.60;;;27.47;;
19814;SDS011;10067;53.092;8.800;2023-12-07T13:01:11;40.40;;;27.23;;
19814;SDS011;10067;53.092;8.800;2023-12-07T13:03:38;42.20;;;27.97;;
19814;SDS011;10067;53.092;8.800;2023-12-07T13:06:06;40.53;;;27.83;;
19814;SDS011;10067;53.092;8.800;2023-12-07T13:08:32;40.67;;;27.47;;
19814;SDS011;10067;53.092;8.800;2023-12-07T13:10:59;40.80;;;28.60;;
19814;SDS011;10067;53.092;8.800;2023-12-07T13:13:26;39.13;;;27.50;;
19814;SDS011;10067;53.092;8.800;2023-12-07T13:15:52;40.77;;;27.60;;
19814;SDS011;10067;53.092;8.800;2023-12-07T13:18:18;41.80;;;27.63;;
19814;SDS011;10067;53.092;8.800;2023-12-07T13:20:45;39.27;;;27.27;;
19814;SDS011;10067;53.092;8.800;2023-12-07T13:23:13;44.57;;;27.10;;
19814;SDS011;10067;53.092;8.800;2023-12-07T13:25:39;40.60;;;25.97;;
19814;SDS011;10067;53.092;8.800;2023-12-07T13:28:06;39.73;;;26.73;;
19814;SDS011;10067;53.092;8.800;2023-12-07T13:30:33;46.07;;;27.43;;
19814;SDS011;10067;53.092;8.800;2023-12-07T13:33:00;39.43;;;28.53;;
19814;SDS011;10067;53.092;8.800;2023-12-07T13:35:27;37.17;;;26.30;;
19814;SDS011;10067;53.092;8.800;2023-12-07T13:37:54;43.63;;;28.00;;
19814;SDS011;10067;53.092;8.800;2023-12-07T13:40:22;42.63;;;28.20;;
19814;SDS011;10067;53.092;8.800;2023-12-07T13:42:49;44.20;;;31.23;;
19814;SDS011;10067;53.092;8.800;2023-12-07T13:45:15;41.40;;;27.90;;
19814;SDS011;10067;53.092;8.800;2023-12-07T13:47:42;41.10;;;27.50;;
19814;SDS011;10067;53.092;8.800;2023-12-07T13:50:09;39.27;;;26.47;;
19814;SDS011;10067;53.092;8.800;2023-12-07T13:52:36;41.00;;;26.67;;
19814;SDS011;10067;53.092;8.800;2023-12-07T13:55:03;38.63;;;26.33;;
19814;SDS011;10067;53.092;8.800;2023-12-07T13:57:31;35.97;;;26.30;;
19814;SDS011;10067;53.092;8.800;2023-12-07T13:59:57;44.20;;;27.37;;
19814;SDS011;10067;53.092;8.800;2023-12-07T14:02:24;42.63;;;27.37;;
19814;SDS011;10067;53.092;8.800;2023-12-07T14:04:51;43.63;;;27.83;;
19814;SDS011;10067;53.092;8.800;2023-12-07T14:07:17;39.00;;;26.17;;
19814;SDS011;10067;53.092;8.800;2023-12-07T14:09:44;30.50;;;23.80;;
19814;SDS011;10067;53.092;8.800;2023-12-07T14:12:11;28.20;;;21.93;;
19814;SDS011;10067;53.092;8.800;2023-12-07T14:14:39;26.53;;;21.60;;
19814;SDS011;10067;53.092;8.800;2023-12-07T14:17:06;32.37;;;22.80;;
19814;SDS011;10067;53.092;8.800;2023-12-07T14:19:32;33.03;;;22.30;;